sensor_id;sensor_type;location;lat;lon;timestamp;temperature;humidity
33460;DHT22;19795;53.160;6.612;2023-02-08T05:26:40;-3.80;99.90
33460;DHT22;19795;53.160;6.612;2023-02-08T05:29:06;-3.80;99.90
33460;DHT22;19795;53.160;6.612;2023-02-08T05:31:32;-3.80;99.90
33460;DHT22;19795;53.160;6.612;2023-02-08T05:33:57;-3.90;99.90
33460;DHT22;19795;53.160;6.612;2023-02-08T05:36:23;-3.90;99.90
33460;DHT22;19795;53.160;6.612;2023-02-08T05:38:49;-3.80;99.90
33460;DHT22;19795;53.160;6.612;2023-02-08T05:41:15;-3.90;99.90
33460;DHT22;19795;53.160;6.612;2023-02-08T05:43:41;-3.90;99.90
33460;DHT22;19795;53.160;6.612;2023-02-08T05:46:07;-3.80;99.90
33460;DHT22;19795;53.160;6.612;2023-02-08T05:48:33;-3.80;99.90
33460;DHT22;19795;53.160;6.612;2023-02-08T05:50:59;-3.80;99.90
33460;DHT22;19795;53.160;6.612;2023-02-08T05:53:24;-3.80;99.90
33460;DHT22;19795;53.160;6.612;2023-02-08T05:55:51;-3.80;99.90
33460;DHT22;19795;53.160;6.612;2023-02-08T05:58:17;-3.90;99.90
33460;DHT22;19795;53.160;6.612;2023-02-08T06:00:43;-3.90;99.90
33460;DHT22;19795;53.160;6.612;2023-02-08T06:03:09;-4.00;99.90
33460;DHT22;19795;53.160;6.612;2023-02-08T06:05:37;-4.10;99.90
33460;DHT22;19795;53.160;6.612;2023-02-08T06:08:03;-4.00;99.90
33460;DHT22;19795;53.160;6.612;2023-02-08T06:10:28;-3.90;99.90
33460;DHT22;19795;53.160;6.612;2023-02-08T06:12:54;-3.80;99.90
33460;DHT22;19795;53.160;6.612;2023-02-08T06:15:20;-3.80;99.90
33460;DHT22;19795;53.160;6.612;2023-02-08T06:17:45;-3.90;99.90
33460;DHT22;19795;53.160;6.612;2023-02-08T06:20:11;-3.80;99.90
33460;DHT22;19795;53.160;6.612;2023-02-08T06:22:36;-3.70;99.90
33460;DHT22;19795;53.160;6.612;2023-02-08T06:25:03;-3.70;99.90
33460;DHT22;19795;53.160;6.612;2023-02-08T06:27:28;-3.70;99.90
33460;DHT22;19795;53.160;6.612;2023-02-08T06:29:54;-3.70;99.90
33460;DHT22;19795;53.160;6.612;2023-02-08T06:32:20;-3.60;99.90
33460;DHT22;19795;53.160;6.612;2023-02-08T06:34:45;-3.40;99.90
33460;DHT22;19795;53.160;6.612;2023-02-08T06:37:12;-3.30;99.90
33460;DHT22;19795;53.160;6.612;2023-02-08T06:39:38;-3.30;99.90
33460;DHT22;19795;53.160;6.612;2023-02-08T06:42:04;-3.20;99.90
33460;DHT22;19795;53.160;6.612;2023-02-08T06:44:29;-3.20;99.90
33460;DHT22;19795;53.160;6.612;2023-02-08T06:46:55;-3.20;99.90
33460;DHT22;19795;53.160;6.612;2023-02-08T06:49:20;-3.20;99.90
33460;DHT22;19795;53.160;6.612;2023-02-08T06:51:46;-3.10;99.90
33460;DHT22;19795;53.160;6.612;2023-02-08T06:54:12;-3.20;99.90
33460;DHT22;19795;53.160;6.612;2023-02-08T06:56:37;-3.20;99.90
33460;DHT22;19795;53.160;6.612;2023-02-08T06:59:03;-3.30;99.90
33460;DHT22;19795;53.160;6.612;2023-02-08T07:01:28;-3.20;99.90
33460;DHT22;19795;53.160;6.612;2023-02-08T07:03:54;-3.20;99.90
33460;DHT22;19795;53.160;6.612;2023-02-08T07:06:20;-3.20;99.90
33460;DHT22;19795;53.160;6.612;2023-02-08T07:08:46;-3.20;99.90
33460;DHT22;19795;53.160;6.612;2023-02-08T07:11:14;-3.20;99.90
33460;DHT22;19795;53.160;6.612;2023-02-08T07:13:40;-3.10;99.90
33460;DHT22;19795;53.160;6.612;2023-02-08T07:16:07;-3.10;99.90
33460;DHT22;19795;53.160;6.612;2023-02-08T07:18:34;-3.00;99.90
33460;DHT22;19795;53.160;6.612;2023-02-08T07:21:00;-2.90;99.90
33460;DHT22;19795;53.160;6.612;2023-02-08T07:23:26;-2.90;99.90
33460;DHT22;19795;53.160;6.612;2023-02-08T07:26:11;-2.90;99.90
33460;DHT22;19795;53.160;6.612;2023-02-08T07:28:39;-2.90;99.90
33460;DHT22;19795;53.160;6.612;2023-02-08T07:31:10;-2.90;99.90
33460;DHT22;19795;53.160;6.612;2023-02-08T07:33:36;-2.80;99.90
33460;DHT22;19795;53.160;6.612;2023-02-08T07:36:02;-2.80;99.90
33460;DHT22;19795;53.160;6.612;2023-02-08T07:38:30;-2.80;99.90
33460;DHT22;19795;53.160;6.612;2023-02-08T07:41:12;-2.80;99.90
33460;DHT22;19795;53.160;6.612;2023-02-08T07:43:39;-2.90;99.90
33460;DHT22;19795;53.160;6.612;2023-02-08T07:46:16;-2.80;99.90
33460;DHT22;19795;53.160;6.612;2023-02-08T07:48:42;-2.70;99.90
33460;DHT22;19795;53.160;6.612;2023-02-08T07:51:08;-2.70;99.90
33460;DHT22;19795;53.160;6.612;2023-02-08T07:53:34;-2.60;99.90
33460;DHT22;19795;53.160;6.612;2023-02-08T07:56:00;-2.50;99.90
33460;DHT22;19795;53.160;6.612;2023-02-08T07:58:26;-2.50;99.90
33460;DHT22;19795;53.160;6.612;2023-02-08T08:00:52;-2.40;99.90
33460;DHT22;19795;53.160;6.612;2023-02-08T08:03:17;-2.40;99.90
33460;DHT22;19795;53.160;6.612;2023-02-08T08:05:43;-2.30;99.90
33460;DHT22;19795;53.160;6.612;2023-02-08T08:08:10;-2.20;99.90
33460;DHT22;19795;53.160;6.612;2023-02-08T08:10:37;-2.10;99.90
33460;DHT22;19795;53.160;6.612;2023-02-08T08:13:03;-2.00;99.90
33460;DHT22;19795;53.160;6.612;2023-02-08T08:15:28;-1.90;99.90
33460;DHT22;19795;53.160;6.612;2023-02-08T08:17:54;-2.00;99.90
33460;DHT22;19795;53.160;6.612;2023-02-08T08:20:20;-1.90;99.90
33460;DHT22;19795;53.160;6.612;2023-02-08T08:22:46;-1.80;99.90
33460;DHT22;19795;53.160;6.612;2023-02-08T08:25:12;-1.90;99.90
33460;DHT22;19795;53.160;6.612;2023-02-08T08:27:38;-1.70;99.90
33460;DHT22;19795;53.160;6.612;2023-02-08T08:30:08;-1.60;99.90
33460;DHT22;19795;53.160;6.612;2023-02-08T08:32:36;-1.50;99.90
33460;DHT22;19795;53.160;6.612;2023-02-08T08:35:02;-1.50;99.90
33460;DHT22;19795;53.160;6.612;2023-02-08T08:37:28;-1.40;99.90
33460;DHT22;19795;53.160;6.612;2023-02-08T08:39:53;-1.30;99.90
33460;DHT22;19795;53.160;6.612;2023-02-08T08:42:19;-1.20;99.90
33460;DHT22;19795;53.160;6.612;2023-02-08T08:44:45;-1.20;99.90
33460;DHT22;19795;53.160;6.612;2023-02-08T08:47:11;-1.20;99.90
33460;DHT22;19795;53.160;6.612;2023-02-08T08:49:37;-1.20;99.90
33460;DHT22;19795;53.160;6.612;2023-02-08T08:52:03;-1.20;99.90
33460;DHT22;19795;53.160;6.612;2023-02-08T08:54:32;-1.10;99.90
33460;DHT22;19795;53.160;6.612;2023-02-08T08:56:58;-1.10;99.90
33460;DHT22;19795;53.160;6.612;2023-02-08T08:59:24;-1.00;99.90
33460;DHT22;19795;53.160;6.612;2023-02-08T09:01:50;-1.00;99.90
33460;DHT22;19795;53.160;6.612;2023-02-08T09:04:16;-0.90;99.90
33460;DHT22;19795;53.160;6.612;2023-02-08T09:06:42;-0.80;99.90
33460;DHT22;19795;53.160;6.612;2023-02-08T09:09:08;-0.70;99.90
33460;DHT22;19795;53.160;6.612;2023-02-08T09:11:33;-0.60;99.90
33460;DHT22;19795;53.160;6.612;2023-02-08T09:14:03;-0.50;99.90
33460;DHT22;19795;53.160;6.612;2023-02-08T09:16:29;-0.40;99.90
33460;DHT22;19795;53.160;6.612;2023-02-08T09:18:55;-0.20;99.90
33460;DHT22;19795;53.160;6.612;2023-02-08T09:21:22;-0.10;99.90
33460;DHT22;19795;53.160;6.612;2023-02-08T09:23:51;-0.10;99.90
33460;DHT22;19795;53.160;6.612;2023-02-08T09:26:18;0.00;99.90
33460;DHT22;19795;53.160;6.612;2023-02-08T09:28:44;0.10;99.90
33460;DHT22;19795;53.160;6.612;2023-02-08T09:31:26;0.10;99.90
33460;DHT22;19795;53.160;6.612;2023-02-08T09:33:54;0.20;99.90
33460;DHT22;19795;53.160;6.612;2023-02-08T09:36:22;0.40;99.90
33460;DHT22;19795;53.160;6.612;2023-02-08T09:38:49;0.30;99.90
33460;DHT22;19795;53.160;6.612;2023-02-08T09:46:47;0.60;99.90
33460;DHT22;19795;53.160;6.612;2023-02-08T09:49:20;0.60;99.90
33460;DHT22;19795;53.160;6.612;2023-02-08T09:52:00;0.60;99.90
33460;DHT22;19795;53.160;6.612;2023-02-08T09:54:42;0.90;99.90
33460;DHT22;19795;53.160;6.612;2023-02-08T09:57:13;0.80;99.90
33460;DHT22;19795;53.160;6.612;2023-02-08T09:59:50;0.90;99.90
33460;DHT22;19795;53.160;6.612;2023-02-08T10:02:27;1.10;99.90
33460;DHT22;19795;53.160;6.612;2023-02-08T10:07:39;1.20;99.90
33460;DHT22;19795;53.160;6.612;2023-02-08T10:10:11;1.30;99.90
33460;DHT22;19795;53.160;6.612;2023-02-08T10:26:05;1.80;99.90
33460;DHT22;19795;53.160;6.612;2023-02-08T10:36:37;2.30;99.90
33460;DHT22;19795;53.160;6.612;2023-02-08T10:39:17;2.30;99.90
33460;DHT22;19795;53.160;6.612;2023-02-08T10:41:45;2.50;99.90
33460;DHT22;19795;53.160;6.612;2023-02-08T10:44:24;2.50;99.90
33460;DHT22;19795;53.160;6.612;2023-02-08T10:47:15;2.60;99.90
33460;DHT22;19795;53.160;6.612;2023-02-08T10:50:08;3.00;99.90
33460;DHT22;19795;53.160;6.612;2023-02-08T10:52:35;3.50;99.90
33460;DHT22;19795;53.160;6.612;2023-02-08T10:55:01;3.90;99.90
33460;DHT22;19795;53.160;6.612;2023-02-08T10:57:31;4.20;99.90
33460;DHT22;19795;53.160;6.612;2023-02-08T11:00:06;4.50;99.90
33460;DHT22;19795;53.160;6.612;2023-02-08T11:02:38;4.70;99.90
33460;DHT22;19795;53.160;6.612;2023-02-08T11:05:13;5.00;99.90
33460;DHT22;19795;53.160;6.612;2023-02-08T11:07:40;5.30;99.90
33460;DHT22;19795;53.160;6.612;2023-02-08T11:13:09;5.70;99.90
33460;DHT22;19795;53.160;6.612;2023-02-08T11:15:59;5.90;99.90
33460;DHT22;19795;53.160;6.612;2023-02-08T11:18:50;6.40;99.90
33460;DHT22;19795;53.160;6.612;2023-02-08T11:21:26;6.80;99.90
33460;DHT22;19795;53.160;6.612;2023-02-08T11:23:55;7.00;99.90
33460;DHT22;19795;53.160;6.612;2023-02-08T11:26:30;7.00;99.90
33460;DHT22;19795;53.160;6.612;2023-02-08T11:29:03;7.40;99.90
33460;DHT22;19795;53.160;6.612;2023-02-08T11:31:30;7.50;99.90
33460;DHT22;19795;53.160;6.612;2023-02-08T11:34:04;7.10;99.90
33460;DHT22;19795;53.160;6.612;2023-02-08T11:36:32;6.80;99.90
33460;DHT22;19795;53.160;6.612;2023-02-08T11:39:20;6.70;99.90
33460;DHT22;19795;53.160;6.612;2023-02-08T11:41:49;6.40;99.90
33460;DHT22;19795;53.160;6.612;2023-02-08T11:47:04;6.40;99.90
33460;DHT22;19795;53.160;6.612;2023-02-08T11:49:41;6.40;99.90
33460;DHT22;19795;53.160;6.612;2023-02-08T11:54:45;6.00;99.90
33460;DHT22;19795;53.160;6.612;2023-02-08T11:57:28;5.80;99.90
33460;DHT22;19795;53.160;6.612;2023-02-08T12:00:18;5.80;99.90
33460;DHT22;19795;53.160;6.612;2023-02-08T12:02:43;5.60;99.90
33460;DHT22;19795;53.160;6.612;2023-02-08T12:05:16;5.50;99.90
33460;DHT22;19795;53.160;6.612;2023-02-08T12:15:53;5.70;99.90
33460;DHT22;19795;53.160;6.612;2023-02-08T12:18:37;5.90;99.90
33460;DHT22;19795;53.160;6.612;2023-02-08T12:21:25;5.80;99.90
33460;DHT22;19795;53.160;6.612;2023-02-08T12:23:57;5.60;99.90
33460;DHT22;19795;53.160;6.612;2023-02-08T12:26:35;5.70;99.90
33460;DHT22;19795;53.160;6.612;2023-02-08T12:31:50;5.80;99.90
33460;DHT22;19795;53.160;6.612;2023-02-08T12:34:39;5.80;99.90
33460;DHT22;19795;53.160;6.612;2023-02-08T12:37:26;6.20;99.90
33460;DHT22;19795;53.160;6.612;2023-02-08T12:43:37;6.30;99.90
33460;DHT22;19795;53.160;6.612;2023-02-08T12:56:54;6.10;99.90
33460;DHT22;19795;53.160;6.612;2023-02-08T12:59:26;6.20;99.90
33460;DHT22;19795;53.160;6.612;2023-02-08T13:01:56;6.10;99.90
33460;DHT22;19795;53.160;6.612;2023-02-08T13:04:33;6.20;99.90
33460;DHT22;19795;53.160;6.612;2023-02-08T13:07:14;6.20;99.90
33460;DHT22;19795;53.160;6.612;2023-02-08T13:12:19;6.30;99.90
33460;DHT22;19795;53.160;6.612;2023-02-08T13:14:55;6.20;98.50
33460;DHT22;19795;53.160;6.612;2023-02-08T13:17:28;6.40;99.60
33460;DHT22;19795;53.160;6.612;2023-02-08T13:20:22;6.60;97.30
33460;DHT22;19795;53.160;6.612;2023-02-08T13:22:55;6.60;96.80
33460;DHT22;19795;53.160;6.612;2023-02-08T13:25:29;6.60;96.50
33460;DHT22;19795;53.160;6.612;2023-02-08T13:28:03;6.60;95.40
33460;DHT22;19795;53.160;6.612;2023-02-08T13:30:31;6.80;94.30
33460;DHT22;19795;53.160;6.612;2023-02-08T13:33:05;6.80;92.20
33460;DHT22;19795;53.160;6.612;2023-02-08T13:35:34;6.80;91.50
33460;DHT22;19795;53.160;6.612;2023-02-08T13:38:27;6.80;93.00
33460;DHT22;19795;53.160;6.612;2023-02-08T13:41:05;7.20;91.40
33460;DHT22;19795;53.160;6.612;2023-02-08T13:43:45;7.20;90.70
33460;DHT22;19795;53.160;6.612;2023-02-08T13:46:13;7.10;90.80
33460;DHT22;19795;53.160;6.612;2023-02-08T13:48:53;7.00;90.60
33460;DHT22;19795;53.160;6.612;2023-02-08T13:56:41;6.90;91.30
33460;DHT22;19795;53.160;6.612;2023-02-08T14:04:50;6.70;91.40
33460;DHT22;19795;53.160;6.612;2023-02-08T14:07:45;6.60;91.50
33460;DHT22;19795;53.160;6.612;2023-02-08T14:15:42;6.60;91.90
33460;DHT22;19795;53.160;6.612;2023-02-08T14:18:24;6.60;93.00
33460;DHT22;19795;53.160;6.612;2023-02-08T14:21:01;6.80;91.80
33460;DHT22;19795;53.160;6.612;2023-02-08T14:23:28;6.80;91.70
33460;DHT22;19795;53.160;6.612;2023-02-08T14:25:56;7.00;92.10
33460;DHT22;19795;53.160;6.612;2023-02-08T14:28:36;7.00;90.20
33460;DHT22;19795;53.160;6.612;2023-02-08T14:31:10;6.70;90.40
33460;DHT22;19795;53.160;6.612;2023-02-08T14:33:43;6.40;91.30
33460;DHT22;19795;53.160;6.612;2023-02-08T14:36:34;6.20;91.60
33460;DHT22;19795;53.160;6.612;2023-02-08T14:50:27;5.90;92.10
33460;DHT22;19795;53.160;6.612;2023-02-08T14:53:28;5.90;91.30
33460;DHT22;19795;53.160;6.612;2023-02-08T14:56:20;5.90;91.70
33460;DHT22;19795;53.160;6.612;2023-02-08T14:58:57;5.80;92.70
33460;DHT22;19795;53.160;6.612;2023-02-08T15:03:58;6.00;91.90
33460;DHT22;19795;53.160;6.612;2023-02-08T15:11:38;5.80;92.20
33460;DHT22;19795;53.160;6.612;2023-02-08T15:14:04;5.70;92.90
33460;DHT22;19795;53.160;6.612;2023-02-08T15:16:39;5.50;93.60
33460;DHT22;19795;53.160;6.612;2023-02-08T15:19:07;5.50;93.70
33460;DHT22;19795;53.160;6.612;2023-02-08T15:21:33;5.50;93.50
33460;DHT22;19795;53.160;6.612;2023-02-08T15:24:10;5.40;94.60
33460;DHT22;19795;53.160;6.612;2023-02-08T15:26:46;5.40;94.70
33460;DHT22;19795;53.160;6.612;2023-02-08T15:31:44;5.30;96.40
33460;DHT22;19795;53.160;6.612;2023-02-08T15:34:11;5.50;96.80
33460;DHT22;19795;53.160;6.612;2023-02-08T15:36:37;5.50;96.40
33460;DHT22;19795;53.160;6.612;2023-02-08T15:39:35;5.60;96.50
33460;DHT22;19795;53.160;6.612;2023-02-08T15:42:03;5.60;96.40
33460;DHT22;19795;53.160;6.612;2023-02-08T15:44:33;5.40;98.10
33460;DHT22;19795;53.160;6.612;2023-02-08T15:47:02;5.30;98.30
33460;DHT22;19795;53.160;6.612;2023-02-08T15:49:44;5.10;98.90
33460;DHT22;19795;53.160;6.612;2023-02-08T15:52:19;4.90;99.90
33460;DHT22;19795;53.160;6.612;2023-02-08T15:54:49;4.90;99.90
33460;DHT22;19795;53.160;6.612;2023-02-08T15:59:55;4.80;99.90
33460;DHT22;19795;53.160;6.612;2023-02-08T16:02:27;4.60;99.90
33460;DHT22;19795;53.160;6.612;2023-02-08T16:04:54;4.50;99.90
33460;DHT22;19795;53.160;6.612;2023-02-08T16:07:27;4.40;99.90
33460;DHT22;19795;53.160;6.612;2023-02-08T16:09:54;4.30;99.90
33460;DHT22;19795;53.160;6.612;2023-02-08T16:12:22;4.40;99.90
33460;DHT22;19795;53.160;6.612;2023-02-08T16:14:49;4.20;99.90
33460;DHT22;19795;53.160;6.612;2023-02-08T16:17:40;4.20;99.90
33460;DHT22;19795;53.160;6.612;2023-02-08T16:20:31;4.00;99.90
33460;DHT22;19795;53.160;6.612;2023-02-08T16:22:59;3.90;99.90
33460;DHT22;19795;53.160;6.612;2023-02-08T16:25:42;3.80;99.90
33460;DHT22;19795;53.160;6.612;2023-02-08T16:28:32;3.70;99.90
33460;DHT22;19795;53.160;6.612;2023-02-08T16:30:59;3.70;99.90
33460;DHT22;19795;53.160;6.612;2023-02-08T16:33:26;3.50;99.90
33460;DHT22;19795;53.160;6.612;2023-02-08T16:35:52;3.30;99.90
33460;DHT22;19795;53.160;6.612;2023-02-08T16:38:26;3.30;99.90
33460;DHT22;19795;53.160;6.612;2023-02-08T16:40:54;3.20;99.90
33460;DHT22;19795;53.160;6.612;2023-02-08T16:43:28;3.20;99.90
33460;DHT22;19795;53.160;6.612;2023-02-08T16:46:17;3.20;99.90
33460;DHT22;19795;53.160;6.612;2023-02-08T16:49:04;3.00;99.90
33460;DHT22;19795;53.160;6.612;2023-02-08T16:51:31;2.90;99.90
33460;DHT22;19795;53.160;6.612;2023-02-08T16:54:04;2.70;99.90
33460;DHT22;19795;53.160;6.612;2023-02-08T16:56:36;2.70;99.90
33460;DHT22;19795;53.160;6.612;2023-02-08T16:59:02;2.60;99.90
33460;DHT22;19795;53.160;6.612;2023-02-08T17:01:28;2.50;99.90
33460;DHT22;19795;53.160;6.612;2023-02-08T17:03:53;2.40;99.90
33460;DHT22;19795;53.160;6.612;2023-02-08T17:06:39;2.30;99.90
33460;DHT22;19795;53.160;6.612;2023-02-08T17:09:07;2.40;99.90
33460;DHT22;19795;53.160;6.612;2023-02-08T17:11:34;2.30;99.90
33460;DHT22;19795;53.160;6.612;2023-02-08T17:14:00;2.30;99.90
33460;DHT22;19795;53.160;6.612;2023-02-08T17:16:30;2.30;99.90
33460;DHT22;19795;53.160;6.612;2023-02-08T17:19:00;2.30;99.90
33460;DHT22;19795;53.160;6.612;2023-02-08T17:21:27;2.10;99.90
33460;DHT22;19795;53.160;6.612;2023-02-08T17:23:57;2.00;99.90
33460;DHT22;19795;53.160;6.612;2023-02-08T17:26:28;1.90;99.90
33460;DHT22;19795;53.160;6.612;2023-02-08T17:28:57;1.80;99.90
33460;DHT22;19795;53.160;6.612;2023-02-08T17:31:24;1.70;99.90
33460;DHT22;19795;53.160;6.612;2023-02-08T17:33:50;1.60;99.90
33460;DHT22;19795;53.160;6.612;2023-02-08T17:36:16;1.40;99.90
33460;DHT22;19795;53.160;6.612;2023-02-08T17:38:44;1.30;99.90
33460;DHT22;19795;53.160;6.612;2023-02-08T17:41:19;1.10;99.90
33460;DHT22;19795;53.160;6.612;2023-02-08T17:43:49;1.10;99.90
33460;DHT22;19795;53.160;6.612;2023-02-08T17:46:18;1.30;99.90
33460;DHT22;19795;53.160;6.612;2023-02-08T17:48:44;1.20;99.90
33460;DHT22;19795;53.160;6.612;2023-02-08T17:51:14;1.30;99.90
33460;DHT22;19795;53.160;6.612;2023-02-08T17:53:41;1.30;99.90
33460;DHT22;19795;53.160;6.612;2023-02-08T17:56:34;1.30;99.90
33460;DHT22;19795;53.160;6.612;2023-02-08T17:59:01;1.40;99.90
33460;DHT22;19795;53.160;6.612;2023-02-08T18:01:31;1.30;99.90
33460;DHT22;19795;53.160;6.612;2023-02-08T18:03:58;1.50;99.90
33460;DHT22;19795;53.160;6.612;2023-02-08T18:06:24;1.40;99.90
33460;DHT22;19795;53.160;6.612;2023-02-08T18:08:51;1.40;99.90
33460;DHT22;19795;53.160;6.612;2023-02-08T18:11:18;1.40;99.90
33460;DHT22;19795;53.160;6.612;2023-02-08T18:13:48;1.30;99.90
33460;DHT22;19795;53.160;6.612;2023-02-08T18:16:20;1.40;99.90
33460;DHT22;19795;53.160;6.612;2023-02-08T18:18:46;1.20;99.90
33460;DHT22;19795;53.160;6.612;2023-02-08T18:21:15;1.10;99.90
33460;DHT22;19795;53.160;6.612;2023-02-08T18:23:42;0.90;99.90
33460;DHT22;19795;53.160;6.612;2023-02-08T18:26:14;0.80;99.90
33460;DHT22;19795;53.160;6.612;2023-02-08T18:28:40;0.70;99.90
33460;DHT22;19795;53.160;6.612;2023-02-08T18:31:08;0.60;99.90
33460;DHT22;19795;53.160;6.612;2023-02-08T18:33:35;0.50;99.90
33460;DHT22;19795;53.160;6.612;2023-02-08T18:36:02;0.40;99.90
33460;DHT22;19795;53.160;6.612;2023-02-08T18:38:28;0.50;99.90
33460;DHT22;19795;53.160;6.612;2023-02-08T18:40:54;0.50;99.90
33460;DHT22;19795;53.160;6.612;2023-02-08T18:43:20;0.40;99.90
33460;DHT22;19795;53.160;6.612;2023-02-08T18:46:06;0.50;99.90
33460;DHT22;19795;53.160;6.612;2023-02-08T18:48:35;0.40;99.90
33460;DHT22;19795;53.160;6.612;2023-02-08T18:51:01;0.50;99.90
33460;DHT22;19795;53.160;6.612;2023-02-08T18:53:31;0.40;99.90
33460;DHT22;19795;53.160;6.612;2023-02-08T18:55:59;0.90;99.90
33460;DHT22;19795;53.160;6.612;2023-02-08T18:58:26;0.40;99.90
33460;DHT22;19795;53.160;6.612;2023-02-08T19:00:52;0.50;99.90
33460;DHT22;19795;53.160;6.612;2023-02-08T19:03:19;0.30;99.90
33460;DHT22;19795;53.160;6.612;2023-02-08T19:05:45;0.30;99.90
33460;DHT22;19795;53.160;6.612;2023-02-08T19:08:11;-0.10;99.90
33460;DHT22;19795;53.160;6.612;2023-02-08T19:10:39;-0.10;99.90
33460;DHT22;19795;53.160;6.612;2023-02-08T19:13:04;0.00;99.90
33460;DHT22;19795;53.160;6.612;2023-02-08T19:15:34;-0.10;99.90
33460;DHT22;19795;53.160;6.612;2023-02-08T19:18:02;-0.20;99.90
33460;DHT22;19795;53.160;6.612;2023-02-08T19:20:28;-0.30;99.90
33460;DHT22;19795;53.160;6.612;2023-02-08T19:22:54;-0.30;99.90
33460;DHT22;19795;53.160;6.612;2023-02-08T19:25:19;-0.30;99.90
33460;DHT22;19795;53.160;6.612;2023-02-08T19:27:48;-0.40;99.90
33460;DHT22;19795;53.160;6.612;2023-02-08T19:30:14;-0.50;99.90
33460;DHT22;19795;53.160;6.612;2023-02-08T19:32:41;-0.50;99.90
33460;DHT22;19795;53.160;6.612;2023-02-08T19:35:07;-0.20;99.90
33460;DHT22;19795;53.160;6.612;2023-02-08T19:37:35;-0.60;99.90
33460;DHT22;19795;53.160;6.612;2023-02-08T19:40:02;-0.60;99.90
33460;DHT22;19795;53.160;6.612;2023-02-08T19:42:27;-0.50;99.90
33460;DHT22;19795;53.160;6.612;2023-02-08T19:44:53;-0.40;99.90
33460;DHT22;19795;53.160;6.612;2023-02-08T19:47:19;-0.40;99.90
33460;DHT22;19795;53.160;6.612;2023-02-08T19:49:46;-0.40;99.90
33460;DHT22;19795;53.160;6.612;2023-02-08T19:52:12;-0.40;99.90
33460;DHT22;19795;53.160;6.612;2023-02-08T19:54:40;-0.30;99.90
33460;DHT22;19795;53.160;6.612;2023-02-08T19:57:06;-0.10;99.90
33460;DHT22;19795;53.160;6.612;2023-02-08T19:59:36;0.10;99.90
33460;DHT22;19795;53.160;6.612;2023-02-08T20:02:02;0.10;99.90
33460;DHT22;19795;53.160;6.612;2023-02-08T20:04:28;0.00;99.90
33460;DHT22;19795;53.160;6.612;2023-02-08T20:06:54;0.10;99.90
33460;DHT22;19795;53.160;6.612;2023-02-08T20:09:19;0.10;99.90
33460;DHT22;19795;53.160;6.612;2023-02-08T20:11:45;0.10;99.90
33460;DHT22;19795;53.160;6.612;2023-02-08T20:14:11;0.20;99.90
33460;DHT22;19795;53.160;6.612;2023-02-08T20:16:39;0.20;99.90
33460;DHT22;19795;53.160;6.612;2023-02-08T20:19:05;0.20;99.90
33460;DHT22;19795;53.160;6.612;2023-02-08T20:21:30;0.10;99.90
33460;DHT22;19795;53.160;6.612;2023-02-08T20:23:56;0.20;99.90
33460;DHT22;19795;53.160;6.612;2023-02-08T20:26:24;0.20;99.90
33460;DHT22;19795;53.160;6.612;2023-02-08T20:28:53;0.30;99.90
33460;DHT22;19795;53.160;6.612;2023-02-08T20:31:22;0.20;99.90
33460;DHT22;19795;53.160;6.612;2023-02-08T20:33:49;0.30;99.90
33460;DHT22;19795;53.160;6.612;2023-02-08T20:36:20;0.30;99.90
33460;DHT22;19795;53.160;6.612;2023-02-08T20:38:47;0.30;99.90
33460;DHT22;19795;53.160;6.612;2023-02-08T20:41:14;0.20;99.90
33460;DHT22;19795;53.160;6.612;2023-02-08T20:43:41;0.10;99.90
33460;DHT22;19795;53.160;6.612;2023-02-08T20:46:19;0.10;99.90
33460;DHT22;19795;53.160;6.612;2023-02-08T20:48:46;-0.10;99.90
33460;DHT22;19795;53.160;6.612;2023-02-08T20:51:14;-0.20;99.90
33460;DHT22;19795;53.160;6.612;2023-02-08T20:53:42;-0.20;99.90
33460;DHT22;19795;53.160;6.612;2023-02-08T20:56:10;-0.20;99.90
33460;DHT22;19795;53.160;6.612;2023-02-08T20:58:36;-0.30;99.90
